Time;durP1;ratioP1;P1;durP2;ratioP2;P2;SDS_P1;SDS_P2;PMS_P1;PMS_P2;Temp;Humidity;BMP_temperature;BMP_pressure;BME280_temperature;BME280_humidity;BME280_pressure;Samples;Min_cycle;Max_cycle;Signal;HPM_P1;HPM_P2
2022/03/25 00:00:36;;;;;;;13.88;7.38;;;;;;;;;;10429076;28;20021;-72
2022/03/25 00:05:37;;;;;;;19.85;7.50;;;;;;;;;;10446941;28;20029;-71
2022/03/25 00:10:37;;;;;;;14.17;7.53;;;;;;;;;;10428837;28;20024;-71
2022/03/25 00:15:37;;;;;;;20.60;8.02;;;;;;;;;;10446732;28;20017;-72
2022/03/25 00:20:38;;;;;;;15.68;7.63;;;;;;;;;;10429006;28;20040;-71
2022/03/25 00:25:38;;;;;;;25.03;8.80;;;;;;;;;;10428949;28;20071;-73
2022/03/25 00:30:38;;;;;;;12.82;7.35;;;;;;;;;;10446136;28;20055;-72
2022/03/25 00:35:40;;;;;;;15.88;7.50;;;;;;;;;;10428309;28;20039;-71
2022/03/25 00:40:40;;;;;;;13.68;7.00;;;;;;;;;;10428028;28;20025;-71
2022/03/25 00:45:40;;;;;;;10.50;6.82;;;;;;;;;;10447816;28;20525;-71
2022/03/25 00:50:41;;;;;;;15.27;8.00;;;;;;;;;;10436127;28;20142;-72
2022/03/25 00:55:41;;;;;;;19.13;6.80;;;;;;;;;;10435333;28;20109;-75
2022/03/25 01:00:42;;;;;;;11.98;7.25;;;;;;;;;;10435757;28;20029;-71
2022/03/25 01:05:42;;;;;;;15.88;7.38;;;;;;;;;;10435144;28;20033;-71
2022/03/25 01:10:43;;;;;;;11.20;6.75;;;;;;;;;;10452729;28;20059;-73
2022/03/25 01:15:43;;;;;;;14.38;6.40;;;;;;;;;;10434822;28;20021;-71
2022/03/25 01:20:43;;;;;;;13.82;6.78;;;;;;;;;;10434868;28;20036;-71
2022/03/25 01:25:44;;;;;;;17.50;6.53;;;;;;;;;;10434563;28;20029;-71
2022/03/25 01:30:44;;;;;;;13.77;6.50;;;;;;;;;;10417753;28;20021;-71
2022/03/25 01:35:45;;;;;;;12.98;7.20;;;;;;;;;;10452127;28;20034;-71
2022/03/25 01:40:45;;;;;;;13.68;7.05;;;;;;;;;;10433651;28;20028;-70
2022/03/25 01:45:46;;;;;;;9.90;6.40;;;;;;;;;;10433820;28;20052;-70
2022/03/25 01:50:47;;;;;;;11.93;5.95;;;;;;;;;;10433383;28;20037;-72
2022/03/25 01:55:50;;;;;;;13.00;6.22;;;;;;;;;;10433194;28;20055;-72
2022/03/25 02:00:51;;;;;;;13.85;5.60;;;;;;;;;;10432374;28;20025;-72
2022/03/25 02:05:51;;;;;;;11.70;6.28;;;;;;;;;;10433342;28;20017;-72
2022/03/25 02:10:51;;;;;;;14.48;6.38;;;;;;;;;;10416157;28;20109;-71
2022/03/25 02:15:52;;;;;;;14.23;7.35;;;;;;;;;;10450562;28;20079;-70
2022/03/25 02:20:52;;;;;;;13.75;6.60;;;;;;;;;;10432676;28;20094;-71
2022/03/25 02:25:53;;;;;;;16.20;7.73;;;;;;;;;;10432395;28;20028;-75
2022/03/25 02:30:53;;;;;;;11.32;6.38;;;;;;;;;;10431584;28;20021;-71
2022/03/25 02:35:54;;;;;;;14.00;6.80;;;;;;;;;;10431916;28;20032;-71
2022/03/25 02:40:55;;;;;;;18.33;7.38;;;;;;;;;;10431928;28;20557;-71
2022/03/25 02:45:55;;;;;;;13.07;7.55;;;;;;;;;;10430890;28;20053;-72
2022/03/25 02:50:56;;;;;;;15.80;7.13;;;;;;;;;;10431346;28;20406;-74
2022/03/25 02:55:56;;;;;;;14.68;6.80;;;;;;;;;;10431033;28;20099;-71
2022/03/25 03:00:56;;;;;;;13.55;7.93;;;;;;;;;;10430833;28;20168;-76
2022/03/25 03:05:57;;;;;;;11.07;5.83;;;;;;;;;;10430789;28;20017;-76
2022/03/25 03:10:57;;;;;;;21.80;6.78;;;;;;;;;;10429883;28;20560;-72
2022/03/25 03:15:57;;;;;;;14.55;7.05;;;;;;;;;;10429286;28;20116;-70
2022/03/25 03:20:58;;;;;;;16.42;7.60;;;;;;;;;;10429904;28;20035;-72
2022/03/25 03:25:58;;;;;;;12.73;7.50;;;;;;;;;;10456865;28;20532;-73
2022/03/25 03:30:59;;;;;;;13.90;7.18;;;;;;;;;;10488860;28;20112;-72
2022/03/25 03:35:59;;;;;;;17.65;7.55;;;;;;;;;;10454246;28;20016;-72
2022/03/25 03:40:59;;;;;;;15.48;6.60;;;;;;;;;;10470718;28;20425;-73
2022/03/25 03:46:00;;;;;;;14.20;8.60;;;;;;;;;;10470292;28;20111;-70
2022/03/25 03:51:00;;;;;;;16.15;7.60;;;;;;;;;;10470246;28;20659;-72
2022/03/25 03:56:00;;;;;;;20.95;7.97;;;;;;;;;;10470643;28;20021;-72
2022/03/25 04:01:01;;;;;;;18.07;8.63;;;;;;;;;;10470123;28;20021;-71
2022/03/25 04:06:01;;;;;;;19.80;8.48;;;;;;;;;;10453334;28;20016;-70
2022/03/25 04:11:02;;;;;;;15.70;8.00;;;;;;;;;;10470212;28;20047;-71
2022/03/25 04:16:03;;;;;;;17.95;8.25;;;;;;;;;;10487921;28;20024;-73
2022/03/25 04:21:04;;;;;;;16.15;7.35;;;;;;;;;;10464930;28;20503;-72
2022/03/25 04:26:05;;;;;;;27.98;8.52;;;;;;;;;;10436717;28;20086;-75
2022/03/25 04:31:05;;;;;;;13.65;7.25;;;;;;;;;;10444681;28;20111;-71
2022/03/25 04:36:05;;;;;;;22.13;8.52;;;;;;;;;;10477707;28;20521;-71
2022/03/25 04:41:09;;;;;;;19.33;8.53;;;;;;;;;;10470621;28;20393;-74
2022/03/25 04:46:10;;;;;;;17.40;8.90;;;;;;;;;;10451707;28;20290;-70
2022/03/25 04:51:10;;;;;;;21.27;8.80;;;;;;;;;;10473775;28;20021;-71
2022/03/25 04:56:11;;;;;;;22.67;9.63;;;;;;;;;;10453745;28;20479;-73
2022/03/25 05:01:11;;;;;;;17.50;9.10;;;;;;;;;;10454803;28;20013;-73
2022/03/25 05:06:11;;;;;;;23.55;9.50;;;;;;;;;;10476814;28;20040;-72
2022/03/25 05:11:11;;;;;;;26.48;11.23;;;;;;;;;;10467994;28;20478;-75
2022/03/25 05:16:12;;;;;;;30.67;12.38;;;;;;;;;;10473569;28;20031;-74
2022/03/25 05:21:13;;;;;;;30.95;12.88;;;;;;;;;;10471288;28;20069;-74
2022/03/25 05:26:13;;;;;;;31.25;12.30;;;;;;;;;;10448454;28;20020;-75
2022/03/25 05:31:13;;;;;;;26.65;12.77;;;;;;;;;;10471396;28;20016;-76
2022/03/25 05:36:13;;;;;;;29.83;11.03;;;;;;;;;;10472035;28;20218;-72
2022/03/25 05:41:14;;;;;;;28.30;11.45;;;;;;;;;;10471082;28;20436;-73
2022/03/25 05:46:14;;;;;;;26.35;9.18;;;;;;;;;;10490497;28;20510;-73
2022/03/25 05:51:15;;;;;;;24.60;9.18;;;;;;;;;;10472650;28;20105;-77
2022/03/25 05:56:15;;;;;;;30.33;11.60;;;;;;;;;;10473071;28;20016;-73
2022/03/25 06:01:15;;;;;;;18.60;8.05;;;;;;;;;;10433491;28;20618;-72
2022/03/25 06:06:15;;;;;;;20.17;7.67;;;;;;;;;;10432212;28;20402;-73
2022/03/25 06:11:16;;;;;;;30.43;8.13;;;;;;;;;;10431953;28;20156;-73
2022/03/25 06:16:17;;;;;;;16.48;8.57;;;;;;;;;;10452389;28;20031;-74
2022/03/25 06:21:17;;;;;;;17.30;7.95;;;;;;;;;;10472783;28;20016;-75
2022/03/25 06:26:17;;;;;;;17.47;8.07;;;;;;;;;;10471749;28;20013;-73
2022/03/25 06:31:18;;;;;;;12.80;7.07;;;;;;;;;;10471420;28;20273;-73
2022/03/25 06:36:18;;;;;;;21.40;8.85;;;;;;;;;;10472155;28;20017;-75
2022/03/25 06:41:18;;;;;;;20.27;9.25;;;;;;;;;;10471913;28;20016;-74
2022/03/25 06:46:18;;;;;;;31.17;10.30;;;;;;;;;;10470819;28;20385;-75
2022/03/25 06:51:19;;;;;;;15.82;8.77;;;;;;;;;;10471516;28;20033;-74
2022/03/25 06:56:20;;;;;;;21.70;9.45;;;;;;;;;;10489118;28;20024;-73
2022/03/25 07:01:20;;;;;;;23.98;10.02;;;;;;;;;;10471274;28;20047;-73
2022/03/25 07:06:22;;;;;;;20.97;9.47;;;;;;;;;;10470877;28;20062;-74
2022/03/25 07:11:23;;;;;;;26.35;10.10;;;;;;;;;;10470771;28;20271;-74
2022/03/25 07:16:24;;;;;;;24.55;10.73;;;;;;;;;;10470634;28;20024;-75
2022/03/25 07:21:24;;;;;;;25.58;10.20;;;;;;;;;;10470194;28;20021;-73
2022/03/25 07:26:25;;;;;;;19.00;9.38;;;;;;;;;;10488949;28;20021;-74
2022/03/25 07:31:28;;;;;;;21.92;9.65;;;;;;;;;;10487861;28;20630;-73
2022/03/25 07:36:28;;;;;;;30.95;11.07;;;;;;;;;;10470298;28;20012;-72
2022/03/25 07:41:29;;;;;;;21.53;10.77;;;;;;;;;;10470511;28;20038;-74
2022/03/25 07:46:29;;;;;;;22.55;10.88;;;;;;;;;;10469811;28;20058;-74
2022/03/25 07:51:29;;;;;;;20.97;10.83;;;;;;;;;;10470186;28;20012;-72
2022/03/25 07:56:30;;;;;;;21.63;10.55;;;;;;;;;;10469804;28;20019;-73
2022/03/25 08:01:30;;;;;;;19.57;9.43;;;;;;;;;;10470169;28;20102;-73
2022/03/25 08:06:30;;;;;;;20.33;9.23;;;;;;;;;;10469937;28;20061;-73
2022/03/25 08:11:31;;;;;;;23.92;8.63;;;;;;;;;;10469829;28;20025;-75
2022/03/25 08:16:31;;;;;;;26.50;9.47;;;;;;;;;;10469852;28;20016;-74
2022/03/25 08:21:31;;;;;;;16.15;8.70;;;;;;;;;;10469468;28;20070;-72
2022/03/25 08:31:51;;;;;;;19.90;9.60;;;;;;;;;;10486971;28;20021;-73
2022/03/25 08:36:51;;;;;;;32.38;9.68;;;;;;;;;;10468689;28;20012;-74
2022/03/25 08:41:51;;;;;;;18.55;10.82;;;;;;;;;;10469011;28;20476;-72
2022/03/25 08:46:51;;;;;;;23.70;9.02;;;;;;;;;;10469522;28;20045;-72
2022/03/25 08:51:52;;;;;;;24.93;9.63;;;;;;;;;;10469501;28;20048;-73
2022/03/25 08:56:53;;;;;;;18.88;9.45;;;;;;;;;;10468004;28;20124;-72
2022/03/25 09:01:56;;;;;;;18.25;9.25;;;;;;;;;;10468971;28;20021;-74
2022/03/25 09:06:56;;;;;;;19.02;9.93;;;;;;;;;;10471161;28;20024;-76
2022/03/25 09:11:56;;;;;;;19.67;9.68;;;;;;;;;;10475681;28;20469;-73
2022/03/25 09:16:56;;;;;;;23.07;8.80;;;;;;;;;;10476253;28;20088;-73
2022/03/25 09:21:57;;;;;;;20.35;8.55;;;;;;;;;;10493875;28;20108;-73
2022/03/25 09:26:58;;;;;;;28.20;9.05;;;;;;;;;;10475592;28;20478;-73
2022/03/25 09:31:58;;;;;;;15.20;7.68;;;;;;;;;;10475269;28;20078;-73
2022/03/25 09:36:58;;;;;;;17.48;8.82;;;;;;;;;;10474702;28;20491;-73
2022/03/25 09:41:59;;;;;;;15.43;7.45;;;;;;;;;;10475299;28;20028;-71
2022/03/25 09:46:59;;;;;;;15.25;8.00;;;;;;;;;;10492858;28;20045;-72
2022/03/25 09:52:00;;;;;;;15.57;7.03;;;;;;;;;;10492774;28;20028;-73
2022/03/25 09:57:01;;;;;;;15.00;6.30;;;;;;;;;;10474807;28;20036;-73
2022/03/25 10:02:01;;;;;;;16.48;6.93;;;;;;;;;;10474224;28;20497;-75
2022/03/25 10:07:13;;;;;;;14.70;6.07;;;;;;;;;;10473976;28;20536;-73
2022/03/25 10:12:26;;;;;;;19.40;6.32;;;;;;;;;;10474124;28;20408;-73
2022/03/25 10:17:27;;;;;;;16.58;5.80;;;;;;;;;;10473272;28;20024;-72
2022/03/25 10:22:27;;;;;;;7.97;5.28;;;;;;;;;;10491364;28;20117;-75
2022/03/25 10:27:30;;;;;;;10.48;6.25;;;;;;;;;;10473154;28;20025;-75
2022/03/25 10:32:30;;;;;;;11.20;5.63;;;;;;;;;;10456037;28;20021;-73
2022/03/25 10:37:31;;;;;;;18.13;6.80;;;;;;;;;;10472685;28;20027;-75
2022/03/25 10:42:31;;;;;;;10.23;5.37;;;;;;;;;;10472430;28;20040;-75
2022/03/25 10:47:32;;;;;;;7.85;4.57;;;;;;;;;;10471582;28;20071;-73
2022/03/25 10:52:34;;;;;;;10.13;4.40;;;;;;;;;;10489808;28;20451;-73
2022/03/25 10:57:46;;;;;;;10.95;4.57;;;;;;;;;;10472299;28;20069;-73
2022/03/25 11:02:47;;;;;;;12.05;5.30;;;;;;;;;;10471552;28;20553;-72
2022/03/25 11:07:48;;;;;;;11.70;5.15;;;;;;;;;;10470827;28;20020;-72
2022/03/25 11:12:51;;;;;;;11.52;5.18;;;;;;;;;;10471350;28;20020;-72
2022/03/25 11:17:51;;;;;;;9.40;5.07;;;;;;;;;;10489066;28;20031;-71
2022/03/25 11:22:53;;;;;;;9.02;4.78;;;;;;;;;;10470347;28;20529;-72
2022/03/25 11:28:01;;;;;;;17.02;5.35;;;;;;;;;;10470297;28;20028;-72
2022/03/25 11:33:03;;;;;;;14.30;5.63;;;;;;;;;;10488042;28;20155;-72
2022/03/25 11:38:13;;;;;;;10.50;5.70;;;;;;;;;;10470571;28;20051;-73
2022/03/25 11:43:21;;;;;;;10.85;6.03;;;;;;;;;;10468547;28;20399;-75
2022/03/25 11:48:24;;;;;;;12.63;5.90;;;;;;;;;;10469404;28;20040;-74
2022/03/25 11:53:26;;;;;;;9.25;5.20;;;;;;;;;;10470596;28;20056;-72
2022/03/25 11:58:27;;;;;;;14.48;5.78;;;;;;;;;;10487528;28;20475;-74
2022/03/25 12:03:42;;;;;;;13.95;7.45;;;;;;;;;;10469641;28;20028;-72
2022/03/25 12:09:13;;;;;;;12.77;6.03;;;;;;;;;;10469347;28;20036;-72
2022/03/25 12:14:13;;;;;;;12.77;5.85;;;;;;;;;;10470463;28;20377;-75
2022/03/25 12:19:26;;;;;;;9.07;5.50;;;;;;;;;;10469175;28;20017;-75
2022/03/25 12:24:27;;;;;;;11.10;5.38;;;;;;;;;;10469070;28;20027;-72
2022/03/25 12:29:31;;;;;;;20.05;5.53;;;;;;;;;;10469389;28;20513;-73
2022/03/25 12:34:37;;;;;;;8.57;4.30;;;;;;;;;;10469434;28;20016;-72
2022/03/25 12:39:38;;;;;;;7.22;4.15;;;;;;;;;;10469180;28;20397;-76
2022/03/25 12:44:38;;;;;;;9.73;4.30;;;;;;;;;;10476916;28;20027;-72
2022/03/25 12:49:38;;;;;;;6.65;3.25;;;;;;;;;;10476399;28;20055;-76
2022/03/25 12:54:39;;;;;;;15.55;4.88;;;;;;;;;;10476662;28;20021;-73
2022/03/25 12:59:40;;;;;;;10.00;3.80;;;;;;;;;;10494512;28;20021;-71
2022/03/25 13:04:40;;;;;;;7.03;3.70;;;;;;;;;;10458700;28;20116;-74
2022/03/25 13:10:01;;;;;;;7.60;4.07;;;;;;;;;;10435004;28;20279;-73
2022/03/25 13:15:02;;;;;;;8.45;4.22;;;;;;;;;;10440595;28;20091;-74
2022/03/25 13:20:06;;;;;;;8.82;4.15;;;;;;;;;;10493590;28;20453;-72
2022/03/25 13:25:06;;;;;;;9.80;3.90;;;;;;;;;;10440401;28;20399;-72
2022/03/25 13:30:07;;;;;;;11.77;4.20;;;;;;;;;;10433588;28;20035;-74
2022/03/25 13:35:09;;;;;;;7.25;4.03;;;;;;;;;;10417398;28;20021;-77
2022/03/25 13:40:26;;;;;;;5.35;3.47;;;;;;;;;;10416951;28;20384;-75
2022/03/25 13:45:26;;;;;;;8.13;4.00;;;;;;;;;;10433495;28;20431;-72
2022/03/25 13:50:27;;;;;;;7.22;3.10;;;;;;;;;;10472772;28;20032;-72
2022/03/25 13:55:32;;;;;;;10.52;4.10;;;;;;;;;;10473440;28;20387;-71
2022/03/25 14:00:36;;;;;;;8.95;4.82;;;;;;;;;;10473875;28;20020;-71
2022/03/25 14:05:37;;;;;;;8.60;4.25;;;;;;;;;;10473575;28;20110;-71
2022/03/25 14:10:53;;;;;;;16.33;5.33;;;;;;;;;;10473803;28;20031;-73
2022/03/25 14:16:11;;;;;;;13.05;4.68;;;;;;;;;;10471578;28;20285;-76
2022/03/25 14:21:21;;;;;;;12.47;5.33;;;;;;;;;;10459997;28;20040;-74
2022/03/25 14:26:21;;;;;;;11.25;5.13;;;;;;;;;;10449664;28;20455;-74
2022/03/25 14:31:22;;;;;;;14.32;5.15;;;;;;;;;;10431325;28;20017;-72
2022/03/25 14:36:22;;;;;;;13.18;6.47;;;;;;;;;;10431075;28;20016;-74
2022/03/25 14:41:27;;;;;;;11.43;4.83;;;;;;;;;;10472461;28;20044;-74
2022/03/25 14:46:29;;;;;;;9.30;6.18;;;;;;;;;;10471729;28;20871;-71
2022/03/25 14:51:29;;;;;;;19.75;6.18;;;;;;;;;;10489548;28;20086;-72
2022/03/25 14:56:30;;;;;;;19.98;5.90;;;;;;;;;;10431913;28;20016;-70
2022/03/25 15:01:30;;;;;;;13.13;5.68;;;;;;;;;;10430615;28;20017;-70
2022/03/25 15:06:31;;;;;;;22.58;5.82;;;;;;;;;;10449638;28;20021;-72
2022/03/25 15:11:31;;;;;;;14.65;7.05;;;;;;;;;;10454541;28;20014;-77
2022/03/25 15:16:32;;;;;;;23.02;11.52;;;;;;;;;;10488601;28;20019;-72
2022/03/25 15:21:32;;;;;;;24.15;12.88;;;;;;;;;;10463717;28;20032;-75
2022/03/25 15:26:34;;;;;;;29.97;12.93;;;;;;;;;;10429361;28;20021;-71
2022/03/25 15:36:54;;;;;;;25.50;9.55;;;;;;;;;;10446592;28;20033;-69
2022/03/25 15:41:54;;;;;;;17.02;8.27;;;;;;;;;;10428811;28;20020;-74
2022/03/25 15:46:54;;;;;;;19.48;9.88;;;;;;;;;;10454454;28;20150;-74
2022/03/25 15:51:56;;;;;;;21.83;9.55;;;;;;;;;;10446230;28;20371;-71
2022/03/25 15:56:56;;;;;;;24.33;9.50;;;;;;;;;;10427849;28;20021;-73
2022/03/25 16:01:57;;;;;;;21.17;8.50;;;;;;;;;;10428795;28;20518;-73
2022/03/25 16:06:58;;;;;;;22.20;9.98;;;;;;;;;;10465127;28;20031;-72
2022/03/25 16:11:59;;;;;;;19.02;9.13;;;;;;;;;;10452626;28;20033;-76
2022/03/25 16:17:04;;;;;;;15.05;9.15;;;;;;;;;;10453418;28;20021;-74
2022/03/25 16:22:04;;;;;;;19.92;9.52;;;;;;;;;;10435910;28;20104;-71
2022/03/25 16:27:04;;;;;;;15.80;8.65;;;;;;;;;;10436000;28;20116;-73
2022/03/25 16:32:06;;;;;;;21.20;10.48;;;;;;;;;;10475085;28;20031;-71
2022/03/25 16:37:09;;;;;;;21.17;8.93;;;;;;;;;;10456856;28;20029;-71
2022/03/25 16:42:09;;;;;;;24.15;9.60;;;;;;;;;;10436689;28;20100;-74
2022/03/25 16:47:10;;;;;;;26.90;9.23;;;;;;;;;;10435168;28;20048;-74
2022/03/25 16:52:10;;;;;;;26.67;11.68;;;;;;;;;;10475001;28;20259;-76
2022/03/25 16:57:11;;;;;;;28.80;10.93;;;;;;;;;;10476136;28;20024;-73
2022/03/25 17:02:12;;;;;;;26.92;11.63;;;;;;;;;;10455069;28;20017;-76
2022/03/25 17:07:12;;;;;;;18.58;10.07;;;;;;;;;;10434379;28;20506;-78
2022/03/25 17:12:13;;;;;;;26.80;10.95;;;;;;;;;;10434708;28;20027;-74
2022/03/25 17:17:13;;;;;;;25.05;10.52;;;;;;;;;;10457188;28;20024;-78
2022/03/25 17:22:14;;;;;;;22.47;10.37;;;;;;;;;;10456281;28;20029;-78
2022/03/25 17:27:15;;;;;;;28.55;10.45;;;;;;;;;;10449341;28;20076;-74
2022/03/25 17:32:15;;;;;;;26.08;10.95;;;;;;;;;;10433956;28;20468;-71
2022/03/25 17:37:16;;;;;;;21.33;10.55;;;;;;;;;;10451776;28;20060;-70
2022/03/25 17:42:16;;;;;;;19.38;11.20;;;;;;;;;;10433260;28;20036;-72
2022/03/25 17:47:16;;;;;;;34.75;12.23;;;;;;;;;;10472343;28;20056;-73
2022/03/25 17:52:17;;;;;;;24.93;12.30;;;;;;;;;;10475469;28;20024;-72
2022/03/25 17:57:17;;;;;;;20.33;9.90;;;;;;;;;;10474562;28;20043;-72
2022/03/25 18:02:17;;;;;;;25.20;11.80;;;;;;;;;;10451287;28;20491;-71
2022/03/25 18:07:18;;;;;;;20.07;10.50;;;;;;;;;;10432773;28;20017;-74
2022/03/25 18:12:18;;;;;;;30.23;10.82;;;;;;;;;;10486898;28;20028;-69
2022/03/25 18:17:18;;;;;;;24.10;9.93;;;;;;;;;;10483985;28;20021;-71
2022/03/25 18:22:22;;;;;;;28.80;11.40;;;;;;;;;;10450058;28;20025;-75
2022/03/25 18:27:22;;;;;;;16.67;9.48;;;;;;;;;;10431593;28;20480;-71
2022/03/25 18:32:23;;;;;;;21.38;9.70;;;;;;;;;;10454486;28;20043;-72
2022/03/25 18:37:23;;;;;;;18.25;9.23;;;;;;;;;;10473154;28;20498;-72
2022/03/25 18:42:23;;;;;;;21.30;8.90;;;;;;;;;;10472021;28;20024;-73
2022/03/25 18:47:24;;;;;;;25.55;9.30;;;;;;;;;;10472414;28;20102;-70
2022/03/25 18:52:27;;;;;;;17.47;9.03;;;;;;;;;;10471652;28;20017;-71
2022/03/25 18:57:27;;;;;;;27.17;8.95;;;;;;;;;;10463744;28;20157;-70
2022/03/25 19:02:30;;;;;;;26.70;10.40;;;;;;;;;;10511137;28;20351;-75
2022/03/25 19:07:31;;;;;;;19.10;9.07;;;;;;;;;;10470046;28;20514;-73
2022/03/25 19:12:32;;;;;;;23.63;9.60;;;;;;;;;;10463671;28;20017;-70
2022/03/25 19:17:32;;;;;;;14.53;8.70;;;;;;;;;;10484025;28;20024;-71
2022/03/25 19:22:32;;;;;;;19.67;9.20;;;;;;;;;;10466598;28;20179;-72
2022/03/25 19:27:33;;;;;;;21.52;9.60;;;;;;;;;;10462707;28;20164;-74
2022/03/25 19:32:34;;;;;;;22.38;9.60;;;;;;;;;;10476839;28;20013;-72
2022/03/25 19:37:34;;;;;;;20.15;9.48;;;;;;;;;;10465898;28;20032;-70
2022/03/25 19:42:35;;;;;;;19.73;10.20;;;;;;;;;;10466583;28;20025;-71
2022/03/25 19:47:36;;;;;;;20.98;10.50;;;;;;;;;;10460694;28;20171;-72
2022/03/25 19:52:40;;;;;;;22.35;10.50;;;;;;;;;;10463919;28;20086;-70
2022/03/25 19:57:40;;;;;;;20.00;10.82;;;;;;;;;;10482025;28;20017;-72
2022/03/25 20:02:41;;;;;;;17.63;9.77;;;;;;;;;;10476107;28;20024;-72
2022/03/25 20:07:41;;;;;;;22.40;9.25;;;;;;;;;;10466964;28;20364;-71
2022/03/25 20:12:41;;;;;;;27.03;10.70;;;;;;;;;;10428197;28;20020;-74
2022/03/25 20:17:41;;;;;;;22.73;10.00;;;;;;;;;;10467569;28;20025;-68
2022/03/25 20:22:42;;;;;;;20.05;9.52;;;;;;;;;;10441625;28;20399;-70
2022/03/25 20:27:42;;;;;;;21.73;10.02;;;;;;;;;;10427486;28;20202;-71
2022/03/25 20:32:42;;;;;;;23.43;10.23;;;;;;;;;;10426434;28;20040;-72
2022/03/25 20:37:45;;;;;;;26.55;9.15;;;;;;;;;;10444748;28;20263;-71
2022/03/25 20:42:46;;;;;;;20.58;8.95;;;;;;;;;;10427580;28;20430;-71
2022/03/25 20:47:46;;;;;;;18.50;8.07;;;;;;;;;;10426083;28;20049;-71
2022/03/25 20:52:47;;;;;;;25.42;8.15;;;;;;;;;;10433463;28;20051;-74
2022/03/25 20:57:47;;;;;;;19.15;7.45;;;;;;;;;;10427477;28;20509;-74
2022/03/25 21:02:47;;;;;;;12.20;6.60;;;;;;;;;;10443142;28;20024;-71
2022/03/25 21:07:48;;;;;;;14.77;6.55;;;;;;;;;;10516967;28;20478;-75
2022/03/25 21:12:48;;;;;;;15.90;7.03;;;;;;;;;;10516926;28;20023;-70
2022/03/25 21:17:48;;;;;;;16.37;7.43;;;;;;;;;;10479805;28;20287;-72
2022/03/25 21:22:48;;;;;;;15.63;7.27;;;;;;;;;;10474957;28;20398;-74
2022/03/25 21:27:49;;;;;;;18.85;7.30;;;;;;;;;;10474604;28;20017;-71
2022/03/25 21:32:49;;;;;;;26.73;6.95;;;;;;;;;;10473831;28;20030;-73
2022/03/25 21:37:50;;;;;;;15.55;7.35;;;;;;;;;;10492039;28;20024;-73
2022/03/25 21:42:50;;;;;;;21.88;6.97;;;;;;;;;;10475076;28;20024;-71
2022/03/25 21:47:51;;;;;;;17.20;7.33;;;;;;;;;;10473276;28;20044;-71
2022/03/25 21:52:51;;;;;;;16.65;7.53;;;;;;;;;;10474165;28;20056;-73
2022/03/25 21:57:53;;;;;;;22.35;7.95;;;;;;;;;;10462561;28;20017;-73
2022/03/25 22:02:53;;;;;;;19.13;7.60;;;;;;;;;;10432193;28;20418;-75
2022/03/25 22:07:54;;;;;;;17.50;7.88;;;;;;;;;;10431258;28;20051;-72
2022/03/25 22:12:55;;;;;;;23.15;8.98;;;;;;;;;;10431274;28;20013;-71
2022/03/25 22:17:56;;;;;;;18.00;7.93;;;;;;;;;;10432135;28;20032;-71
2022/03/25 22:22:56;;;;;;;16.35;8.63;;;;;;;;;;10449227;28;20407;-74
2022/03/25 22:27:57;;;;;;;18.77;7.50;;;;;;;;;;10453457;28;20394;-74
2022/03/25 22:32:58;;;;;;;24.58;8.20;;;;;;;;;;10448870;28;20549;-70
2022/03/25 22:37:59;;;;;;;29.25;8.15;;;;;;;;;;10430613;28;20025;-73
2022/03/25 22:42:59;;;;;;;19.60;8.30;;;;;;;;;;10436573;28;20032;-70
2022/03/25 22:48:00;;;;;;;23.03;9.27;;;;;;;;;;10490077;28;20079;-70
2022/03/25 22:53:00;;;;;;;22.93;8.33;;;;;;;;;;10470907;28;20259;-69
2022/03/25 22:58:00;;;;;;;21.75;9.18;;;;;;;;;;10470886;28;20820;-74
2022/03/25 23:03:01;;;;;;;26.13;9.48;;;;;;;;;;10490054;28;20542;-72
2022/03/25 23:08:01;;;;;;;20.93;9.13;;;;;;;;;;10471262;28;20623;-72
2022/03/25 23:13:03;;;;;;;30.60;8.02;;;;;;;;;;10487771;28;20328;-77
2022/03/25 23:18:03;;;;;;;24.65;8.88;;;;;;;;;;10489193;28;20405;-74
2022/03/25 23:23:04;;;;;;;27.33;9.13;;;;;;;;;;10471614;28;20035;-71
2022/03/25 23:28:05;;;;;;;27.77;10.35;;;;;;;;;;10470791;28;20483;-72
2022/03/25 23:33:08;;;;;;;28.25;10.85;;;;;;;;;;10471279;28;20077;-72
2022/03/25 23:38:08;;;;;;;27.38;11.80;;;;;;;;;;10466391;28;20036;-69
2022/03/25 23:43:09;;;;;;;28.77;11.90;;;;;;;;;;10430109;28;20086;-74
2022/03/25 23:48:09;;;;;;;33.88;10.68;;;;;;;;;;10447442;28;20507;-69
2022/03/25 23:53:10;;;;;;;27.27;10.97;;;;;;;;;;10429614;28;20029;-71
2022/03/25 23:58:10;;;;;;;22.20;9.27;;;;;;;;;;10429880;28;20025;-74
